Airfield :
LOGIN :

Register | Disclaimer

   EN    FR    IT 

 










Legend :    VFR   Marginal VFR   IFR   Intensive IFR   Very Intensive IFR
Visi :
Ceiling :
>= 8 km
>= 3000ft
5 to 8 km
1000 to 3000 ft
1500m to 5 km
500 to 1000 ft
800 to 1500m
200 to 500 ft
< 800m
< 200 ft
Symbols :   Thunderstorms  Fog  Heavy snow  Heavy precipitations  Wind > 20 kt
SIGMETs :     Misc.  Thunderstorms  Icing  Turbulence  Mountain Waves  Volcanic Ashes






- Airport Elevation : 238 ft
- IATA code : FAB


EGLF - Farnborough

CURRENT METAR :
  • 121650Z AUTO 17010KT 130V190 9999 NCD 14/03 Q1007

EXPIRED METARs :
  • 121620Z AUTO 15010KT 120V180 9999 NCD 14/03 Q1008
  • 121550Z AUTO 14011KT 9999 FEW047/// 15/04 Q1008
  • 121520Z AUTO 14010KT 120V190 9999 FEW046/// 16/04 Q1008
  • 121450Z AUTO 17009KT 120V230 9999 FEW044/// 15/04 Q1008
  • 121420Z AUTO 15010KT 120V190 9999 FEW044/// 15/05 Q1008

TAF TAF EGLF
Valid from the 12 at 15:00 until the 12 at 23:00 UTC


121358Z 1215/1223 18010KT 9999 SCT045
BECMG 1216/1219 10008KT
PROB30
TEMPO 1218/1223 8000 -RA
ATIS : +44 09063 800 400 (*282)



MET'MAP, your aeronautical weather chart ! - Copyright ORBIFLY December 2007 - Disclaimer

ORBIFLY MET'MAP TEAM :

Programming & Development : Alexandra Zaïnal
Concept & original design : Baudouin d'Aumeries
Assistance for programming : Marc-Olivier Méhu
Technical & hardware support : Manuel Goepfert

Contact : metmap@orbifly.com




SOURCES & CREDITS :

   NOAA